sensor_id;sensor_type;location;lat;lon;timestamp;pressure;altitude;pressure_sealevel;temperature;humidity
71559;BME280;59382;43.852;25.952;2023-09-19T00:00:42;101605.84;;;22.87;47.29
71559;BME280;59382;43.852;25.952;2023-09-19T00:03:09;101581.59;;;22.74;47.21
71559;BME280;59382;43.852;25.952;2023-09-19T00:05:37;101590.47;;;22.81;47.02
71559;BME280;59382;43.852;25.952;2023-09-19T00:08:09;101601.19;;;22.87;47.09
71559;BME280;59382;43.852;25.952;2023-09-19T00:10:35;101579.72;;;22.79;47.02
71559;BME280;59382;43.852;25.952;2023-09-19T00:13:04;101580.00;;;22.78;47.30
71559;BME280;59382;43.852;25.952;2023-09-19T00:15:41;101595.41;;;22.84;47.26
71559;BME280;59382;43.852;25.952;2023-09-19T00:18:08;101583.00;;;22.76;47.30
71559;BME280;59382;43.852;25.952;2023-09-19T00:20:37;101589.06;;;22.83;47.23
71559;BME280;59382;43.852;25.952;2023-09-19T00:23:04;101591.56;;;22.85;47.15
71559;BME280;59382;43.852;25.952;2023-09-19T00:25:29;101591.81;;;22.83;47.21
71559;BME280;59382;43.852;25.952;2023-09-19T00:27:55;101597.31;;;22.78;47.73
71559;BME280;59382;43.852;25.952;2023-09-19T00:30:20;101578.84;;;22.64;47.94
71559;BME280;59382;43.852;25.952;2023-09-19T00:32:50;101593.69;;;22.63;48.39
71559;BME280;59382;43.852;25.952;2023-09-19T00:35:23;101569.34;;;22.40;48.68
71559;BME280;59382;43.852;25.952;2023-09-19T00:37:51;101588.66;;;22.50;48.67
71559;BME280;59382;43.852;25.952;2023-09-19T00:40:17;101600.19;;;22.47;48.88
71559;BME280;59382;43.852;25.952;2023-09-19T00:42:47;101584.22;;;22.39;49.04
71559;BME280;59382;43.852;25.952;2023-09-19T00:45:15;101587.22;;;22.37;48.78
71559;BME280;59382;43.852;25.952;2023-09-19T00:47:45;101584.16;;;22.34;49.47
71559;BME280;59382;43.852;25.952;2023-09-19T00:50:12;101603.16;;;22.35;49.25
71559;BME280;59382;43.852;25.952;2023-09-19T00:52:42;101598.44;;;22.26;49.60
71559;BME280;59382;43.852;25.952;2023-09-19T00:55:09;101596.81;;;22.30;49.47
71559;BME280;59382;43.852;25.952;2023-09-19T00:57:36;101601.22;;;22.31;49.63
71559;BME280;59382;43.852;25.952;2023-09-19T01:00:04;101584.13;;;22.24;49.37
71559;BME280;59382;43.852;25.952;2023-09-19T01:02:32;101596.53;;;22.31;49.14
71559;BME280;59382;43.852;25.952;2023-09-19T01:04:58;101592.41;;;22.29;48.97
71559;BME280;59382;43.852;25.952;2023-09-19T01:07:25;101580.81;;;22.17;49.11
71559;BME280;59382;43.852;25.952;2023-09-19T01:09:50;101588.78;;;22.18;49.12
71559;BME280;59382;43.852;25.952;2023-09-19T01:12:23;101592.06;;;22.15;49.12
71559;BME280;59382;43.852;25.952;2023-09-19T01:14:59;101579.94;;;22.11;49.19
71559;BME280;59382;43.852;25.952;2023-09-19T01:17:34;101578.59;;;22.14;49.01
71559;BME280;59382;43.852;25.952;2023-09-19T01:20:21;101586.53;;;22.10;48.90
71559;BME280;59382;43.852;25.952;2023-09-19T01:23:10;101580.72;;;22.07;48.83
71559;BME280;59382;43.852;25.952;2023-09-19T01:26:18;101580.72;;;22.02;48.99
71559;BME280;59382;43.852;25.952;2023-09-19T01:31:24;101564.72;;;21.89;49.05
71559;BME280;59382;43.852;25.952;2023-09-19T01:34:00;101577.91;;;21.92;49.18
71559;BME280;59382;43.852;25.952;2023-09-19T01:36:36;101573.22;;;21.92;49.14
71559;BME280;59382;43.852;25.952;2023-09-19T01:39:07;101566.66;;;21.93;49.43
71559;BME280;59382;43.852;25.952;2023-09-19T01:44:12;101560.28;;;21.88;49.38
71559;BME280;59382;43.852;25.952;2023-09-19T01:46:44;101567.47;;;21.94;49.41
71559;BME280;59382;43.852;25.952;2023-09-19T01:49:44;101569.66;;;21.92;49.40
71559;BME280;59382;43.852;25.952;2023-09-19T01:52:14;101555.88;;;21.87;49.32
71559;BME280;59382;43.852;25.952;2023-09-19T01:54:58;101554.25;;;21.86;49.37
71559;BME280;59382;43.852;25.952;2023-09-19T01:57:42;101542.09;;;21.77;49.34
71559;BME280;59382;43.852;25.952;2023-09-19T02:00:12;101549.28;;;21.83;49.46
71559;BME280;59382;43.852;25.952;2023-09-19T02:02:46;101547.06;;;21.80;49.41
71559;BME280;59382;43.852;25.952;2023-09-19T02:05:13;101548.66;;;21.76;49.44
71559;BME280;59382;43.852;25.952;2023-09-19T02:07:47;101551.97;;;21.78;49.62
71559;BME280;59382;43.852;25.952;2023-09-19T02:10:13;101555.84;;;21.77;49.41
71559;BME280;59382;43.852;25.952;2023-09-19T02:12:39;101554.19;;;21.81;49.50
71559;BME280;59382;43.852;25.952;2023-09-19T02:15:05;101547.06;;;21.80;49.63
71559;BME280;59382;43.852;25.952;2023-09-19T02:17:33;101530.19;;;21.71;49.58
71559;BME280;59382;43.852;25.952;2023-09-19T02:19:58;101553.09;;;21.82;49.55
71559;BME280;59382;43.852;25.952;2023-09-19T02:22:28;101542.94;;;21.82;49.45
71559;BME280;59382;43.852;25.952;2023-09-19T02:24:55;101531.13;;;21.82;49.37
71559;BME280;59382;43.852;25.952;2023-09-19T02:27:23;101541.34;;;21.91;49.44
71559;BME280;59382;43.852;25.952;2023-09-19T02:29:49;101546.28;;;21.84;49.45
71559;BME280;59382;43.852;25.952;2023-09-19T02:32:14;101547.59;;;21.82;49.53
71559;BME280;59382;43.852;25.952;2023-09-19T02:34:40;101533.47;;;21.68;49.57
71559;BME280;59382;43.852;25.952;2023-09-19T02:37:08;101536.47;;;21.62;49.66
71559;BME280;59382;43.852;25.952;2023-09-19T02:39:34;101537.53;;;21.61;49.57
71559;BME280;59382;43.852;25.952;2023-09-19T02:42:00;101541.34;;;21.55;49.59
71559;BME280;59382;43.852;25.952;2023-09-19T02:44:26;101540.47;;;21.44;49.88
71559;BME280;59382;43.852;25.952;2023-09-19T02:46:52;101551.13;;;21.41;49.88
71559;BME280;59382;43.852;25.952;2023-09-19T02:49:18;101564.06;;;21.45;49.91
71559;BME280;59382;43.852;25.952;2023-09-19T02:51:44;101563.25;;;21.45;50.08
71559;BME280;59382;43.852;25.952;2023-09-19T02:54:11;101562.69;;;21.43;50.12
71559;BME280;59382;43.852;25.952;2023-09-19T02:56:37;101554.97;;;21.40;50.04
71559;BME280;59382;43.852;25.952;2023-09-19T02:59:03;101561.00;;;21.37;50.04
71559;BME280;59382;43.852;25.952;2023-09-19T03:01:29;101548.84;;;21.32;49.97
71559;BME280;59382;43.852;25.952;2023-09-19T03:03:54;101562.13;;;21.41;50.08
71559;BME280;59382;43.852;25.952;2023-09-19T03:06:21;101549.38;;;21.29;50.13
71559;BME280;59382;43.852;25.952;2023-09-19T03:08:47;101552.69;;;21.31;50.25
71559;BME280;59382;43.852;25.952;2023-09-19T03:11:14;101541.13;;;21.24;50.03
71559;BME280;59382;43.852;25.952;2023-09-19T03:13:41;101543.28;;;21.22;50.71
71559;BME280;59382;43.852;25.952;2023-09-19T03:16:08;101546.25;;;21.16;50.98
71559;BME280;59382;43.852;25.952;2023-09-19T03:18:34;101553.66;;;21.15;51.39
71559;BME280;59382;43.852;25.952;2023-09-19T03:21:00;101556.34;;;21.10;51.52
71559;BME280;59382;43.852;25.952;2023-09-19T03:23:27;101548.84;;;21.01;51.82
71559;BME280;59382;43.852;25.952;2023-09-19T03:25:53;101563.41;;;21.01;51.85
71559;BME280;59382;43.852;25.952;2023-09-19T03:28:20;101561.13;;;20.93;52.21
71559;BME280;59382;43.852;25.952;2023-09-19T03:31:06;101559.44;;;20.92;52.33
71559;BME280;59382;43.852;25.952;2023-09-19T03:33:32;101574.34;;;20.96;52.26
71559;BME280;59382;43.852;25.952;2023-09-19T03:35:58;101584.22;;;20.97;52.46
71559;BME280;59382;43.852;25.952;2023-09-19T03:38:27;101571.44;;;20.86;52.75
71559;BME280;59382;43.852;25.952;2023-09-19T03:40:55;101574.84;;;20.93;52.56
71559;BME280;59382;43.852;25.952;2023-09-19T03:43:21;101577.75;;;20.87;52.87
71559;BME280;59382;43.852;25.952;2023-09-19T03:45:46;101587.28;;;20.79;52.59
71559;BME280;59382;43.852;25.952;2023-09-19T03:48:12;101581.19;;;20.72;52.58
71559;BME280;59382;43.852;25.952;2023-09-19T03:50:38;101561.28;;;20.60;52.58
71559;BME280;59382;43.852;25.952;2023-09-19T03:53:05;101560.97;;;20.57;52.67
71559;BME280;59382;43.852;25.952;2023-09-19T03:55:32;101570.06;;;20.62;52.56
71559;BME280;59382;43.852;25.952;2023-09-19T03:58:02;101563.44;;;20.58;52.44
71559;BME280;59382;43.852;25.952;2023-09-19T04:00:29;101542.94;;;20.39;52.63
71559;BME280;59382;43.852;25.952;2023-09-19T04:02:55;101551.75;;;20.41;52.69
71559;BME280;59382;43.852;25.952;2023-09-19T04:05:22;101561.53;;;20.37;53.10
71559;BME280;59382;43.852;25.952;2023-09-19T04:07:49;101554.28;;;20.26;53.11
71559;BME280;59382;43.852;25.952;2023-09-19T04:10:16;101561.94;;;20.24;53.23
71559;BME280;59382;43.852;25.952;2023-09-19T04:12:53;101563.28;;;20.22;53.46
71559;BME280;59382;43.852;25.952;2023-09-19T04:15:19;101572.91;;;20.24;53.49
71559;BME280;59382;43.852;25.952;2023-09-19T04:17:50;101577.69;;;20.34;53.31
71559;BME280;59382;43.852;25.952;2023-09-19T04:20:19;101556.78;;;20.28;53.10
71559;BME280;59382;43.852;25.952;2023-09-19T04:22:45;101569.97;;;20.31;53.07
71559;BME280;59382;43.852;25.952;2023-09-19T04:25:14;101560.97;;;20.14;53.38
71559;BME280;59382;43.852;25.952;2023-09-19T04:27:40;101577.28;;;20.09;53.44
71559;BME280;59382;43.852;25.952;2023-09-19T04:30:07;101569.69;;;19.94;53.44
71559;BME280;59382;43.852;25.952;2023-09-19T04:32:41;101575.84;;;20.01;53.56
71559;BME280;59382;43.852;25.952;2023-09-19T04:35:19;101571.44;;;20.00;53.48
71559;BME280;59382;43.852;25.952;2023-09-19T04:37:45;101572.59;;;20.04;53.21
71559;BME280;59382;43.852;25.952;2023-09-19T04:40:10;101575.91;;;20.06;53.21
71559;BME280;59382;43.852;25.952;2023-09-19T04:42:39;101562.16;;;20.01;52.88
71559;BME280;59382;43.852;25.952;2023-09-19T04:45:05;101582.22;;;20.07;53.09
71559;BME280;59382;43.852;25.952;2023-09-19T04:47:31;101569.78;;;19.99;53.14
71559;BME280;59382;43.852;25.952;2023-09-19T04:49:57;101591.84;;;20.09;52.98
71559;BME280;59382;43.852;25.952;2023-09-19T04:52:24;101582.53;;;20.10;52.85
71559;BME280;59382;43.852;25.952;2023-09-19T04:54:50;101558.00;;;19.99;52.81
71559;BME280;59382;43.852;25.952;2023-09-19T04:57:15;101563.28;;;20.05;52.85
71559;BME280;59382;43.852;25.952;2023-09-19T04:59:41;101542.56;;;19.93;52.79
71559;BME280;59382;43.852;25.952;2023-09-19T05:02:07;101556.97;;;20.05;52.66
71559;BME280;59382;43.852;25.952;2023-09-19T05:04:35;101557.13;;;20.15;52.68
71559;BME280;59382;43.852;25.952;2023-09-19T05:07:01;101547.66;;;20.22;52.64
71559;BME280;59382;43.852;25.952;2023-09-19T05:09:29;101545.16;;;20.42;52.42
71559;BME280;59382;43.852;25.952;2023-09-19T05:11:54;101551.56;;;20.74;52.10
71559;BME280;59382;43.852;25.952;2023-09-19T05:14:21;101545.81;;;20.97;51.83
71559;BME280;59382;43.852;25.952;2023-09-19T05:16:48;101546.63;;;21.29;51.64
71559;BME280;59382;43.852;25.952;2023-09-19T05:19:14;101538.41;;;21.66;51.03
71559;BME280;59382;43.852;25.952;2023-09-19T05:21:39;101535.72;;;22.18;50.37
71559;BME280;59382;43.852;25.952;2023-09-19T05:24:05;101535.91;;;22.68;49.68
71559;BME280;59382;43.852;25.952;2023-09-19T05:26:34;101522.78;;;23.10;49.19
71559;BME280;59382;43.852;25.952;2023-09-19T05:28:59;101516.47;;;23.60;48.62
71559;BME280;59382;43.852;25.952;2023-09-19T05:31:26;101519.94;;;24.05;47.67
71559;BME280;59382;43.852;25.952;2023-09-19T05:33:53;101539.00;;;24.60;46.76
71559;BME280;59382;43.852;25.952;2023-09-19T05:36:19;101522.97;;;24.72;46.39
71559;BME280;59382;43.852;25.952;2023-09-19T05:38:45;101518.41;;;24.91;45.72
71559;BME280;59382;43.852;25.952;2023-09-19T05:41:14;101531.22;;;25.16;45.77
71559;BME280;59382;43.852;25.952;2023-09-19T05:43:40;101536.50;;;25.46;44.83
71559;BME280;59382;43.852;25.952;2023-09-19T05:46:07;101539.78;;;25.53;44.77
71559;BME280;59382;43.852;25.952;2023-09-19T05:48:33;101526.91;;;25.39;44.23
71559;BME280;59382;43.852;25.952;2023-09-19T05:50:59;101536.41;;;25.23;44.60
71559;BME280;59382;43.852;25.952;2023-09-19T05:53:26;101532.22;;;25.25;45.08
71559;BME280;59382;43.852;25.952;2023-09-19T05:55:51;101531.13;;;25.60;44.48
71559;BME280;59382;43.852;25.952;2023-09-19T05:58:18;101526.72;;;26.11;44.16
71559;BME280;59382;43.852;25.952;2023-09-19T06:00:45;101522.84;;;26.54;43.29
71559;BME280;59382;43.852;25.952;2023-09-19T06:03:13;101525.81;;;26.81;42.56
71559;BME280;59382;43.852;25.952;2023-09-19T06:05:40;101520.56;;;26.98;42.22
71559;BME280;59382;43.852;25.952;2023-09-19T06:08:08;101508.50;;;27.08;41.74
71559;BME280;59382;43.852;25.952;2023-09-19T06:10:35;101523.81;;;27.37;41.57
71559;BME280;59382;43.852;25.952;2023-09-19T06:13:02;101498.19;;;27.45;40.88
71559;BME280;59382;43.852;25.952;2023-09-19T06:15:31;101509.88;;;27.56;40.80
71559;BME280;59382;43.852;25.952;2023-09-19T06:17:58;101515.25;;;27.52;40.70
71559;BME280;59382;43.852;25.952;2023-09-19T06:20:28;101520.97;;;27.42;41.05
71559;BME280;59382;43.852;25.952;2023-09-19T06:22:53;101512.97;;;27.54;40.82
71559;BME280;59382;43.852;25.952;2023-09-19T06:25:19;101503.75;;;27.59;40.49
71559;BME280;59382;43.852;25.952;2023-09-19T06:27:49;101507.25;;;27.64;39.93
71559;BME280;59382;43.852;25.952;2023-09-19T06:30:18;101510.53;;;27.66;40.31
71559;BME280;59382;43.852;25.952;2023-09-19T06:32:43;101507.97;;;27.70;40.58
71559;BME280;59382;43.852;25.952;2023-09-19T06:35:15;101498.13;;;27.77;40.16
71559;BME280;59382;43.852;25.952;2023-09-19T06:37:42;101500.19;;;27.85;39.85
71559;BME280;59382;43.852;25.952;2023-09-19T06:40:12;101516.38;;;27.97;39.45
71559;BME280;59382;43.852;25.952;2023-09-19T06:42:43;101499.00;;;27.91;39.78
71559;BME280;59382;43.852;25.952;2023-09-19T06:45:11;101509.16;;;28.09;39.79
71559;BME280;59382;43.852;25.952;2023-09-19T06:47:42;101509.97;;;28.23;39.42
71559;BME280;59382;43.852;25.952;2023-09-19T06:50:09;101509.97;;;28.23;39.14
71559;BME280;59382;43.852;25.952;2023-09-19T06:52:45;101493.66;;;27.95;39.30
71559;BME280;59382;43.852;25.952;2023-09-19T06:55:12;101501.91;;;27.81;39.68
71559;BME280;59382;43.852;25.952;2023-09-19T06:57:42;101509.13;;;27.82;40.02
71559;BME280;59382;43.852;25.952;2023-09-19T07:00:10;101511.69;;;27.79;40.04
71559;BME280;59382;43.852;25.952;2023-09-19T07:03:02;101503.75;;;27.72;40.14
71559;BME280;59382;43.852;25.952;2023-09-19T07:05:30;101515.66;;;27.91;40.10
71559;BME280;59382;43.852;25.952;2023-09-19T07:07:56;101500.94;;;27.91;39.85
71559;BME280;59382;43.852;25.952;2023-09-19T07:10:25;101518.63;;;28.08;39.91
71559;BME280;59382;43.852;25.952;2023-09-19T07:13:01;101507.28;;;28.32;39.31
71559;BME280;59382;43.852;25.952;2023-09-19T07:15:28;101491.38;;;28.37;39.32
71559;BME280;59382;43.852;25.952;2023-09-19T07:17:54;101489.53;;;28.46;39.35
71559;BME280;59382;43.852;25.952;2023-09-19T07:20:28;101491.44;;;28.59;38.82
71559;BME280;59382;43.852;25.952;2023-09-19T07:22:57;101497.13;;;28.77;38.87
71559;BME280;59382;43.852;25.952;2023-09-19T07:25:25;101494.63;;;28.89;38.88
71559;BME280;59382;43.852;25.952;2023-09-19T07:27:51;101486.97;;;28.94;38.60
71559;BME280;59382;43.852;25.952;2023-09-19T07:30:17;101473.66;;;28.83;38.47
71559;BME280;59382;43.852;25.952;2023-09-19T07:32:43;101477.84;;;28.72;38.67
71559;BME280;59382;43.852;25.952;2023-09-19T07:35:08;101477.47;;;28.51;38.86
71559;BME280;59382;43.852;25.952;2023-09-19T07:37:34;101467.81;;;28.35;39.18
71559;BME280;59382;43.852;25.952;2023-09-19T07:40:06;101465.97;;;28.30;39.23
71559;BME280;59382;43.852;25.952;2023-09-19T07:42:36;101473.34;;;28.35;39.03
71559;BME280;59382;43.852;25.952;2023-09-19T07:45:05;101461.66;;;28.24;39.27
71559;BME280;59382;43.852;25.952;2023-09-19T07:47:30;101458.78;;;28.29;39.23
71559;BME280;59382;43.852;25.952;2023-09-19T07:49:58;101450.34;;;28.34;39.22
71559;BME280;59382;43.852;25.952;2023-09-19T07:52:24;101444.56;;;28.44;39.20
71559;BME280;59382;43.852;25.952;2023-09-19T07:54:50;101445.19;;;28.55;39.06
71559;BME280;59382;43.852;25.952;2023-09-19T07:57:18;101436.84;;;28.41;39.07
71559;BME280;59382;43.852;25.952;2023-09-19T07:59:48;101437.28;;;28.21;39.54
71559;BME280;59382;43.852;25.952;2023-09-19T08:02:13;101438.06;;;28.13;39.69
71559;BME280;59382;43.852;25.952;2023-09-19T08:04:45;101431.50;;;27.96;39.87
71559;BME280;59382;43.852;25.952;2023-09-19T08:07:12;101435.38;;;28.08;40.22
71559;BME280;59382;43.852;25.952;2023-09-19T08:09:38;101419.13;;;28.15;39.45
71559;BME280;59382;43.852;25.952;2023-09-19T08:12:05;101424.56;;;28.20;39.48
71559;BME280;59382;43.852;25.952;2023-09-19T08:14:33;101422.63;;;28.21;39.54
71559;BME280;59382;43.852;25.952;2023-09-19T08:16:59;101418.28;;;28.28;39.32
71559;BME280;59382;43.852;25.952;2023-09-19T08:19:26;101427.00;;;28.35;39.28
71559;BME280;59382;43.852;25.952;2023-09-19T08:21:57;101435.72;;;28.42;38.21
71559;BME280;59382;43.852;25.952;2023-09-19T08:24:29;101420.94;;;28.33;38.18
71559;BME280;59382;43.852;25.952;2023-09-19T08:26:58;101418.91;;;28.25;37.69
71559;BME280;59382;43.852;25.952;2023-09-19T08:29:28;101423.41;;;28.21;37.56
71559;BME280;59382;43.852;25.952;2023-09-19T08:31:55;101428.88;;;28.26;37.63
71559;BME280;59382;43.852;25.952;2023-09-19T08:34:22;101419.59;;;28.31;37.74
71559;BME280;59382;43.852;25.952;2023-09-19T08:36:53;101417.03;;;28.34;37.50
71559;BME280;59382;43.852;25.952;2023-09-19T08:39:22;101409.81;;;28.47;37.20
71559;BME280;59382;43.852;25.952;2023-09-19T08:41:49;101401.28;;;28.43;36.97
71559;BME280;59382;43.852;25.952;2023-09-19T08:44:15;101395.84;;;28.38;36.75
71559;BME280;59382;43.852;25.952;2023-09-19T08:46:42;101403.25;;;28.29;36.80
71559;BME280;59382;43.852;25.952;2023-09-19T08:49:19;101399.34;;;28.30;36.80
71559;BME280;59382;43.852;25.952;2023-09-19T08:51:57;101382.53;;;28.27;36.71
71559;BME280;59382;43.852;25.952;2023-09-19T08:54:34;101403.47;;;28.46;36.32
71559;BME280;59382;43.852;25.952;2023-09-19T08:57:06;101401.38;;;28.52;36.25
71559;BME280;59382;43.852;25.952;2023-09-19T08:59:39;101386.47;;;28.48;35.95
71559;BME280;59382;43.852;25.952;2023-09-19T09:02:14;101387.81;;;28.37;35.64
71559;BME280;59382;43.852;25.952;2023-09-19T09:04:44;101392.69;;;28.31;35.19
71559;BME280;59382;43.852;25.952;2023-09-19T09:07:22;101379.63;;;28.18;34.48
71559;BME280;59382;43.852;25.952;2023-09-19T09:09:55;101368.00;;;27.94;34.27
71559;BME280;59382;43.852;25.952;2023-09-19T09:12:26;101377.63;;;27.83;32.69
71559;BME280;59382;43.852;25.952;2023-09-19T09:14:53;101377.66;;;27.56;33.16
71559;BME280;59382;43.852;25.952;2023-09-19T09:17:24;101372.22;;;27.38;33.64
71559;BME280;59382;43.852;25.952;2023-09-19T09:19:54;101372.38;;;27.28;33.40
71559;BME280;59382;43.852;25.952;2023-09-19T09:22:23;101363.88;;;27.24;32.75
71559;BME280;59382;43.852;25.952;2023-09-19T09:24:56;101365.94;;;27.32;33.12
71559;BME280;59382;43.852;25.952;2023-09-19T09:27:31;101359.59;;;27.45;32.95
71559;BME280;59382;43.852;25.952;2023-09-19T09:29:59;101354.75;;;27.64;32.55
71559;BME280;59382;43.852;25.952;2023-09-19T09:32:29;101342.28;;;27.75;32.31
71559;BME280;59382;43.852;25.952;2023-09-19T09:35:00;101350.81;;;28.06;32.11
71559;BME280;59382;43.852;25.952;2023-09-19T09:37:27;101349.00;;;28.23;31.91
71559;BME280;59382;43.852;25.952;2023-09-19T09:40:01;101358.44;;;28.36;31.40
71559;BME280;59382;43.852;25.952;2023-09-19T09:42:56;101369.72;;;28.39;31.21
71559;BME280;59382;43.852;25.952;2023-09-19T09:45:24;101356.28;;;28.33;30.95
71559;BME280;59382;43.852;25.952;2023-09-19T09:48:00;101365.63;;;28.37;31.05
71559;BME280;59382;43.852;25.952;2023-09-19T09:50:33;101361.91;;;28.41;30.85
71559;BME280;59382;43.852;25.952;2023-09-19T09:53:26;101362.53;;;28.38;30.80
71559;BME280;59382;43.852;25.952;2023-09-19T09:56:09;101363.41;;;28.25;31.12
71559;BME280;59382;43.852;25.952;2023-09-19T09:58:49;101344.63;;;28.09;31.38
71559;BME280;59382;43.852;25.952;2023-09-19T10:01:15;101348.22;;;28.09;31.47
71559;BME280;59382;43.852;25.952;2023-09-19T10:03:42;101353.13;;;28.12;31.60
71559;BME280;59382;43.852;25.952;2023-09-19T10:06:16;101357.75;;;28.17;31.47
71559;BME280;59382;43.852;25.952;2023-09-19T10:09:06;101349.25;;;28.13;31.15
71559;BME280;59382;43.852;25.952;2023-09-19T10:12:12;101359.72;;;28.16;31.61
71559;BME280;59382;43.852;25.952;2023-09-19T10:14:42;101337.75;;;28.06;31.72
71559;BME280;59382;43.852;25.952;2023-09-19T10:17:13;101344.31;;;28.10;31.98
71559;BME280;59382;43.852;25.952;2023-09-19T10:22:17;101339.50;;;28.02;31.75
71559;BME280;59382;43.852;25.952;2023-09-19T10:24:48;101348.34;;;28.04;31.72
71559;BME280;59382;43.852;25.952;2023-09-19T10:27:28;101346.38;;;28.05;31.34
71559;BME280;59382;43.852;25.952;2023-09-19T10:30:00;101338.38;;;28.03;31.63
71559;BME280;59382;43.852;25.952;2023-09-19T10:33:11;101346.19;;;28.01;31.71
71559;BME280;59382;43.852;25.952;2023-09-19T10:35:53;101332.44;;;27.96;31.57
71559;BME280;59382;43.852;25.952;2023-09-19T10:38:27;101329.94;;;28.08;31.47
71559;BME280;59382;43.852;25.952;2023-09-19T10:40:56;101332.59;;;28.13;31.35
71559;BME280;59382;43.852;25.952;2023-09-19T10:43:32;101307.53;;;28.05;31.06
71559;BME280;59382;43.852;25.952;2023-09-19T10:46:16;101326.81;;;28.23;30.68
71559;BME280;59382;43.852;25.952;2023-09-19T10:48:50;101327.31;;;28.25;30.89
71559;BME280;59382;43.852;25.952;2023-09-19T10:51:20;101329.47;;;28.28;30.68
71559;BME280;59382;43.852;25.952;2023-09-19T10:53:55;101317.16;;;28.21;30.55
71559;BME280;59382;43.852;25.952;2023-09-19T10:56:34;101311.41;;;28.17;30.32
71559;BME280;59382;43.852;25.952;2023-09-19T10:59:09;101322.25;;;28.27;30.12
71559;BME280;59382;43.852;25.952;2023-09-19T11:01:49;101327.19;;;28.30;30.27
71559;BME280;59382;43.852;25.952;2023-09-19T11:04:34;101300.94;;;28.14;30.51
71559;BME280;59382;43.852;25.952;2023-09-19T11:07:11;101306.16;;;28.16;30.43
71559;BME280;59382;43.852;25.952;2023-09-19T11:09:54;101315.31;;;28.16;30.46
71559;BME280;59382;43.852;25.952;2023-09-19T11:14:57;101314.91;;;28.09;30.55
71559;BME280;59382;43.852;25.952;2023-09-19T11:30:49;101305.63;;;27.78;30.81
71559;BME280;59382;43.852;25.952;2023-09-19T11:36:14;101309.44;;;27.82;31.44
71559;BME280;59382;43.852;25.952;2023-09-19T11:43:48;101298.84;;;27.98;31.26
71559;BME280;59382;43.852;25.952;2023-09-19T11:46:16;101296.44;;;28.05;31.39
71559;BME280;59382;43.852;25.952;2023-09-19T11:48:47;101298.28;;;28.09;31.06
71559;BME280;59382;43.852;25.952;2023-09-19T11:51:15;101284.91;;;28.11;31.06
71559;BME280;59382;43.852;25.952;2023-09-19T11:53:51;101283.28;;;28.10;30.58
71559;BME280;59382;43.852;25.952;2023-09-19T11:56:19;101287.81;;;28.06;30.81
71559;BME280;59382;43.852;25.952;2023-09-19T11:58:46;101285.78;;;27.98;30.84
71559;BME280;59382;43.852;25.952;2023-09-19T12:01:22;101283.75;;;27.90;31.20
71559;BME280;59382;43.852;25.952;2023-09-19T12:03:53;101270.72;;;27.77;31.51
71559;BME280;59382;43.852;25.952;2023-09-19T12:06:20;101266.94;;;27.73;31.57
71559;BME280;59382;43.852;25.952;2023-09-19T12:08:47;101282.94;;;27.76;31.66
71559;BME280;59382;43.852;25.952;2023-09-19T12:11:14;101278.81;;;27.74;31.66
71559;BME280;59382;43.852;25.952;2023-09-19T12:13:45;101270.44;;;27.65;31.58
71559;BME280;59382;43.852;25.952;2023-09-19T12:16:16;101262.34;;;27.55;31.62
71559;BME280;59382;43.852;25.952;2023-09-19T12:18:45;101253.66;;;27.48;31.96
71559;BME280;59382;43.852;25.952;2023-09-19T12:21:30;101276.22;;;27.55;31.18
71559;BME280;59382;43.852;25.952;2023-09-19T12:24:04;101255.66;;;27.56;31.33
71559;BME280;59382;43.852;25.952;2023-09-19T12:26:37;101249.28;;;27.56;31.48
71559;BME280;59382;43.852;25.952;2023-09-19T12:29:03;101264.88;;;27.65;31.47
71559;BME280;59382;43.852;25.952;2023-09-19T12:31:30;101251.25;;;27.55;31.31
71559;BME280;59382;43.852;25.952;2023-09-19T12:34:01;101249.59;;;27.54;31.23
71559;BME280;59382;43.852;25.952;2023-09-19T12:36:27;101249.34;;;27.42;31.46
71559;BME280;59382;43.852;25.952;2023-09-19T12:38:58;101258.75;;;27.55;31.45
71559;BME280;59382;43.852;25.952;2023-09-19T12:41:25;101253.03;;;27.51;31.40
71559;BME280;59382;43.852;25.952;2023-09-19T12:43:53;101255.78;;;27.51;31.48
71559;BME280;59382;43.852;25.952;2023-09-19T12:46:23;101255.47;;;27.53;31.56
71559;BME280;59382;43.852;25.952;2023-09-19T12:49:16;101256.28;;;27.53;31.78
71559;BME280;59382;43.852;25.952;2023-09-19T12:51:48;101247.88;;;27.58;31.85
71559;BME280;59382;43.852;25.952;2023-09-19T12:54:14;101250.72;;;27.67;31.73
71559;BME280;59382;43.852;25.952;2023-09-19T12:56:44;101238.31;;;27.64;31.74
71559;BME280;59382;43.852;25.952;2023-09-19T12:59:13;101246.00;;;27.67;31.80
71559;BME280;59382;43.852;25.952;2023-09-19T13:01:41;101241.88;;;27.65;31.68
71559;BME280;59382;43.852;25.952;2023-09-19T13:06:46;101223.00;;;27.53;31.76
71559;BME280;59382;43.852;25.952;2023-09-19T13:09:14;101228.94;;;27.60;31.85
71559;BME280;59382;43.852;25.952;2023-09-19T13:11:41;101230.09;;;27.59;31.96
71559;BME280;59382;43.852;25.952;2023-09-19T13:16:56;101221.78;;;27.59;31.29
71559;BME280;59382;43.852;25.952;2023-09-19T13:19:43;101237.53;;;27.72;31.20
71559;BME280;59382;43.852;25.952;2023-09-19T13:25:15;101232.50;;;27.88;30.92
71559;BME280;59382;43.852;25.952;2023-09-19T13:27:48;101221.09;;;27.89;31.01
71559;BME280;59382;43.852;25.952;2023-09-19T13:30:17;101231.56;;;27.92;31.17
71559;BME280;59382;43.852;25.952;2023-09-19T13:32:43;101223.75;;;27.94;31.10
71559;BME280;59382;43.852;25.952;2023-09-19T13:35:09;101210.84;;;27.90;31.08